Time;durP1;ratioP1;P1;durP2;ratioP2;P2;SDS_P1;SDS_P2;PMS_P1;PMS_P2;Temp;Humidity;BMP_temperature;BMP_pressure;BME280_temperature;BME280_humidity;BME280_pressure;Samples;Min_cycle;Max_cycle;Signal;HPM_P1;HPM_P2
2021/11/06 00:00:58;;;;;;;22.83;13.80;;;5.50;80.10;;;;;;5030293;28;20045;-89
2021/11/06 00:03:25;;;;;;;20.13;12.52;;;5.50;80.10;;;;;;5029866;28;20486;-89
2021/11/06 00:05:52;;;;;;;18.85;12.55;;;5.50;80.20;;;;;;5031993;28;20049;-89
2021/11/06 00:08:29;;;;;;;23.65;12.40;;;5.50;80.10;;;;;;5029836;28;20514;-89
2021/11/06 00:10:56;;;;;;;18.83;12.23;;;5.50;80.20;;;;;;5029615;28;20107;-90
2021/11/06 00:13:23;;;;;;;17.50;11.60;;;5.50;80.20;;;;;;5030104;28;20041;-91
2021/11/06 00:15:50;;;;;;;18.17;11.77;;;5.40;80.20;;;;;;5031909;28;20055;-89
2021/11/06 00:18:17;;;;;;;15.82;10.98;;;5.40;80.20;;;;;;5031593;28;20056;-88
2021/11/06 00:20:43;;;;;;;17.42;10.75;;;5.40;80.20;;;;;;5031800;28;20262;-89
2021/11/06 00:23:10;;;;;;;16.48;11.15;;;5.40;80.20;;;;;;5031580;28;20103;-89
2021/11/06 00:25:37;;;;;;;19.50;11.07;;;5.50;80.20;;;;;;5031383;28;20430;-91
2021/11/06 00:28:04;;;;;;;17.13;10.68;;;5.40;80.20;;;;;;5031636;28;20510;-88
2021/11/06 00:30:31;;;;;;;16.17;10.15;;;5.40;80.20;;;;;;5031356;28;20060;-89
2021/11/06 00:32:58;;;;;;;15.48;10.07;;;5.40;80.20;;;;;;5031748;28;20053;-89
2021/11/06 00:35:26;;;;;;;14.43;9.85;;;5.40;80.20;;;;;;5031152;28;20041;-90
2021/11/06 00:37:54;;;;;;;13.50;9.27;;;5.40;80.20;;;;;;5031201;28;20114;-90
2021/11/06 00:40:36;;;;;;;15.93;8.90;;;5.40;80.20;;;;;;5031808;28;20040;-90
2021/11/06 00:43:03;;;;;;;12.05;8.27;;;5.40;80.20;;;;;;5031641;28;20046;-91
2021/11/06 00:45:30;;;;;;;12.20;8.75;;;5.40;80.20;;;;;;5030578;28;20076;-91
2021/11/06 00:47:58;;;;;;;12.43;8.25;;;5.30;80.20;;;;;;5031132;28;20063;-92
2021/11/06 00:50:24;;;;;;;11.93;8.52;;;5.40;80.20;;;;;;5030327;28;20061;-91
2021/11/06 00:52:53;;;;;;;15.98;8.38;;;5.30;80.20;;;;;;5034340;28;20069;-91
2021/11/06 00:55:21;;;;;;;13.23;8.50;;;5.30;80.10;;;;;;5034320;28;20041;-91
2021/11/06 00:57:49;;;;;;;13.18;8.18;;;5.30;80.10;;;;;;5034519;28;20042;-91
2021/11/06 01:00:19;;;;;;;10.95;7.88;;;5.30;80.10;;;;;;5034453;28;20064;-92
2021/11/06 01:02:47;;;;;;;12.43;7.65;;;5.30;80.10;;;;;;5032595;28;20238;-93
2021/11/06 01:05:14;;;;;;;10.80;7.47;;;5.30;80.10;;;;;;5033770;28;20049;-90
2021/11/06 01:07:42;;;;;;;14.40;7.97;;;5.20;80.10;;;;;;5034061;28;20041;-90
2021/11/06 01:10:12;;;;;;;12.85;7.75;;;5.20;80.10;;;;;;5034259;28;20052;-91
2021/11/06 01:12:53;;;;;;;12.25;7.25;;;5.20;80.10;;;;;;5034186;28;20589;-91
2021/11/06 01:15:20;;;;;;;10.68;6.70;;;5.20;80.20;;;;;;5034051;28;20292;-92
2021/11/06 01:17:47;;;;;;;13.15;8.18;;;5.20;80.10;;;;;;5032489;28;20049;-90
2021/11/06 01:20:15;;;;;;;12.30;6.60;;;5.20;80.20;;;;;;5033763;28;20107;-91
2021/11/06 01:22:42;;;;;;;10.18;6.75;;;5.20;80.20;;;;;;5033871;28;20049;-91
2021/11/06 01:25:10;;;;;;;11.80;6.60;;;5.20;80.20;;;;;;5033775;28;20107;-91
2021/11/06 01:27:37;;;;;;;8.38;6.03;;;5.20;80.20;;;;;;5033983;28;20097;-89
2021/11/06 01:30:07;;;;;;;9.15;6.28;;;5.20;80.20;;;;;;5034315;28;20053;-90
2021/11/06 01:32:34;;;;;;;9.95;6.43;;;5.10;80.20;;;;;;5033662;28;20049;-90
2021/11/06 01:35:01;;;;;;;9.43;6.65;;;5.10;80.20;;;;;;5033595;28;20050;-90
2021/11/06 01:37:28;;;;;;;10.35;6.25;;;5.10;80.20;;;;;;5033572;28;20045;-92
2021/11/06 01:39:55;;;;;;;9.07;6.32;;;5.10;80.20;;;;;;5033789;28;20045;-91
2021/11/06 01:42:23;;;;;;;11.80;6.50;;;5.10;80.20;;;;;;5033801;28;20111;-91
2021/11/06 01:44:50;;;;;;;10.70;6.18;;;5.10;80.20;;;;;;5034211;28;20045;-91
2021/11/06 01:47:17;;;;;;;10.30;6.13;;;5.10;80.20;;;;;;5033599;28;20057;-92
2021/11/06 01:49:44;;;;;;;9.38;5.97;;;5.10;80.20;;;;;;5033415;28;20461;-91
2021/11/06 01:52:11;;;;;;;9.63;5.95;;;5.10;80.10;;;;;;5033572;28;20049;-91
2021/11/06 01:54:38;;;;;;;10.88;5.93;;;5.10;80.20;;;;;;5033845;28;20049;-92
2021/11/06 01:57:06;;;;;;;10.57;6.05;;;5.00;80.20;;;;;;5033936;28;20057;-91
2021/11/06 01:59:33;;;;;;;10.07;5.95;;;5.00;80.20;;;;;;5033620;28;20056;-91
2021/11/06 02:02:02;;;;;;;10.50;5.93;;;5.00;80.20;;;;;;5032329;28;20143;-91
2021/11/06 02:04:29;;;;;;;11.00;6.40;;;5.00;80.20;;;;;;5033211;28;20058;-92
2021/11/06 02:06:56;;;;;;;9.52;6.07;;;5.00;80.20;;;;;;5033380;28;20049;-93
2021/11/06 02:09:23;;;;;;;11.35;6.55;;;5.00;80.20;;;;;;5033134;28;20056;-91
2021/11/06 02:11:50;;;;;;;9.73;6.40;;;5.00;80.20;;;;;;5033373;28;20552;-92
2021/11/06 02:14:17;;;;;;;10.30;6.57;;;4.90;80.20;;;;;;5032921;28;20049;-91
2021/11/06 02:16:45;;;;;;;10.88;7.20;;;5.00;80.20;;;;;;5032945;28;20060;-91
2021/11/06 02:19:12;;;;;;;10.82;6.60;;;5.00;80.20;;;;;;5033338;28;20454;-91
2021/11/06 02:21:39;;;;;;;9.30;6.43;;;5.00;80.20;;;;;;5032943;28;20465;-91
2021/11/06 02:24:07;;;;;;;8.82;6.10;;;4.90;80.20;;;;;;5033229;28;20049;-91
2021/11/06 02:26:34;;;;;;;12.68;6.72;;;5.00;80.20;;;;;;5032814;28;20049;-92
2021/11/06 02:29:10;;;;;;;10.25;6.57;;;4.90;80.20;;;;;;5032549;28;20049;-92
2021/11/06 02:31:38;;;;;;;12.38;6.28;;;4.90;80.30;;;;;;5032406;28;20045;-90
2021/11/06 02:34:06;;;;;;;10.20;6.53;;;5.00;80.30;;;;;;5032934;28;20046;-91
2021/11/06 02:36:33;;;;;;;8.55;5.97;;;4.90;80.30;;;;;;5032883;28;20132;-91
2021/11/06 02:39:00;;;;;;;10.63;6.45;;;4.90;80.40;;;;;;5033134;28;20085;-92
2021/11/06 02:41:36;;;;;;;10.45;5.85;;;4.90;80.40;;;;;;5031606;28;20053;-92
2021/11/06 02:44:10;;;;;;;11.27;5.78;;;4.90;80.40;;;;;;5032449;28;20061;-91
2021/11/06 02:46:40;;;;;;;10.43;5.70;;;4.90;80.50;;;;;;5032364;28;20528;-91
2021/11/06 02:49:08;;;;;;;10.65;6.50;;;4.90;80.50;;;;;;5031629;28;20045;-90
2021/11/06 02:51:35;;;;;;;8.25;5.22;;;5.00;80.50;;;;;;5016766;28;20053;-92
2021/11/06 02:54:03;;;;;;;8.82;5.72;;;4.90;80.50;;;;;;5033063;28;20041;-91
2021/11/06 02:56:30;;;;;;;10.95;6.05;;;4.90;80.50;;;;;;5032159;28;20057;-91
2021/11/06 02:58:57;;;;;;;9.25;5.80;;;4.90;80.60;;;;;;5032234;28;20139;-91
2021/11/06 03:01:25;;;;;;;9.75;5.93;;;5.00;80.60;;;;;;5031985;28;20076;-92
2021/11/06 03:03:56;;;;;;;8.45;5.18;;;4.90;80.60;;;;;;5032347;28;20049;-92
2021/11/06 03:06:23;;;;;;;9.43;5.93;;;4.90;80.60;;;;;;5032138;28;20045;-92
2021/11/06 03:08:50;;;;;;;8.73;5.68;;;5.00;80.60;;;;;;5032653;28;20060;-91
2021/11/06 03:11:17;;;;;;;8.25;5.70;;;5.00;80.60;;;;;;5032091;28;20061;-91
2021/11/06 03:13:45;;;;;;;9.23;5.72;;;4.90;80.70;;;;;;5030883;28;20453;-92
2021/11/06 03:16:14;;;;;;;9.43;5.80;;;5.00;80.70;;;;;;5031616;28;20494;-90
2021/11/06 03:18:41;;;;;;;7.90;5.32;;;5.00;80.70;;;;;;5032058;28;20053;-92
2021/11/06 03:21:08;;;;;;;10.30;5.57;;;5.00;80.70;;;;;;5032210;28;20511;-92
2021/11/06 03:23:35;;;;;;;8.07;4.75;;;5.00;80.70;;;;;;5031971;28;20049;-92
2021/11/06 03:26:02;;;;;;;10.05;5.35;;;5.00;80.70;;;;;;5031743;28;20049;-92
2021/11/06 03:28:29;;;;;;;8.43;5.35;;;5.00;80.70;;;;;;5031476;28;20053;-90
2021/11/06 03:30:56;;;;;;;8.63;5.53;;;5.00;80.70;;;;;;5032050;28;20068;-92
2021/11/06 03:33:22;;;;;;;12.50;5.57;;;5.00;80.70;;;;;;5031733;28;20045;-91
2021/11/06 03:35:49;;;;;;;8.95;5.60;;;5.00;80.70;;;;;;5032207;28;20045;-91
2021/11/06 03:38:17;;;;;;;8.27;5.40;;;5.00;80.70;;;;;;5031923;28;20076;-92
2021/11/06 03:40:44;;;;;;;10.10;5.40;;;5.00;80.70;;;;;;5031735;28;20103;-93
2021/11/06 03:43:10;;;;;;;9.55;5.57;;;5.00;80.70;;;;;;5031535;28;20045;-93
2021/11/06 03:45:41;;;;;;;11.77;5.78;;;5.00;80.70;;;;;;5031399;28;20046;-91
2021/11/06 03:48:08;;;;;;;8.50;5.30;;;5.00;80.70;;;;;;5030954;28;20107;-91
2021/11/06 03:50:35;;;;;;;11.52;5.70;;;5.00;80.70;;;;;;5031479;28;20053;-91
2021/11/06 03:53:03;;;;;;;9.63;5.80;;;5.00;80.80;;;;;;5031212;28;20049;-92
2021/11/06 03:55:30;;;;;;;10.23;5.22;;;5.00;80.80;;;;;;5031437;28;20041;-91
2021/11/06 03:57:57;;;;;;;9.55;5.40;;;5.00;80.80;;;;;;5031136;28;20057;-93
2021/11/06 04:00:24;;;;;;;10.07;5.65;;;5.00;80.80;;;;;;5031606;28;20060;-94
2021/11/06 04:02:51;;;;;;;7.57;5.25;;;5.00;80.80;;;;;;5032136;28;20052;-92
2021/11/06 04:05:18;;;;;;;11.25;5.63;;;5.00;80.80;;;;;;5031132;28;20128;-93
2021/11/06 04:07:45;;;;;;;9.73;5.32;;;5.00;80.80;;;;;;5031252;28;20045;-91
2021/11/06 04:10:13;;;;;;;7.95;5.18;;;5.00;80.80;;;;;;5031219;28;20453;-91
2021/11/06 04:13:00;;;;;;;8.07;4.90;;;5.00;80.80;;;;;;5030725;28;20053;-91
2021/11/06 04:15:27;;;;;;;7.78;5.10;;;5.00;80.80;;;;;;5031538;28;20119;-91
2021/11/06 04:17:54;;;;;;;8.57;5.32;;;5.00;80.80;;;;;;5031787;28;20395;-92
2021/11/06 04:20:21;;;;;;;10.68;5.88;;;5.00;80.90;;;;;;5030932;28;20037;-91
2021/11/06 04:22:50;;;;;;;8.93;5.45;;;5.00;80.80;;;;;;5031101;28;20049;-92
2021/11/06 04:25:18;;;;;;;8.98;5.38;;;5.00;80.90;;;;;;5030527;28;20062;-92
2021/11/06 04:27:45;;;;;;;8.60;5.25;;;5.10;80.90;;;;;;5030773;28;20041;-93
2021/11/06 04:30:13;;;;;;;9.07;5.88;;;5.00;80.90;;;;;;5031064;28;20107;-91
2021/11/06 04:32:41;;;;;;;8.70;5.55;;;5.00;80.90;;;;;;5030553;28;20153;-92
2021/11/06 04:35:08;;;;;;;8.70;5.40;;;5.00;80.90;;;;;;5031145;28;20056;-91
2021/11/06 04:37:36;;;;;;;9.18;5.60;;;5.00;80.90;;;;;;5030809;28;20421;-91
2021/11/06 04:40:05;;;;;;;10.02;5.90;;;5.00;80.90;;;;;;5031214;28;20490;-92
2021/11/06 04:42:32;;;;;;;8.20;5.30;;;5.00;80.90;;;;;;5030721;28;20050;-92
2021/11/06 04:44:59;;;;;;;8.00;5.28;;;5.10;80.90;;;;;;5031444;28;20071;-91
2021/11/06 04:47:26;;;;;;;8.13;5.47;;;5.10;80.90;;;;;;5030876;28;20494;-93
2021/11/06 04:49:55;;;;;;;9.57;5.72;;;5.00;80.90;;;;;;5029679;28;20076;-92
2021/11/06 04:52:22;;;;;;;6.93;5.18;;;5.00;80.90;;;;;;5030636;28;20490;-91
2021/11/06 04:54:50;;;;;;;8.73;5.70;;;5.10;80.90;;;;;;5030719;28;20053;-92
2021/11/06 04:57:17;;;;;;;9.10;5.80;;;5.10;80.90;;;;;;5030806;28;20050;-92
2021/11/06 04:59:44;;;;;;;9.20;5.68;;;5.00;80.90;;;;;;5031171;28;20474;-91
2021/11/06 05:02:11;;;;;;;7.82;5.43;;;5.10;80.90;;;;;;5030551;28;20053;-92
2021/11/06 05:04:38;;;;;;;10.68;6.05;;;5.10;80.90;;;;;;5030722;28;20045;-92
2021/11/06 05:07:05;;;;;;;11.15;5.90;;;5.10;80.90;;;;;;5030780;28;20425;-91
2021/11/06 05:09:33;;;;;;;7.65;5.60;;;5.00;80.90;;;;;;5030910;28;20045;-92
2021/11/06 05:12:01;;;;;;;8.65;5.70;;;5.10;80.90;;;;;;5030989;28;20056;-93
2021/11/06 05:14:28;;;;;;;9.88;6.28;;;5.10;80.90;;;;;;5030463;28;20061;-91
2021/11/06 05:16:55;;;;;;;8.05;5.43;;;5.10;80.90;;;;;;5030392;28;20049;-92
2021/11/06 05:19:22;;;;;;;7.47;5.63;;;5.10;80.90;;;;;;5030265;28;20046;-92
2021/11/06 05:21:49;;;;;;;9.23;5.72;;;5.10;80.90;;;;;;5030900;28;20042;-92
2021/11/06 05:24:17;;;;;;;10.68;6.60;;;5.00;80.90;;;;;;5030622;28;20061;-91
2021/11/06 05:26:44;;;;;;;8.63;6.30;;;5.00;80.90;;;;;;5030588;28;20099;-90
2021/11/06 05:29:11;;;;;;;8.27;6.25;;;5.10;80.90;;;;;;5030359;28;20465;-92
2021/11/06 05:31:39;;;;;;;9.48;6.82;;;5.00;80.80;;;;;;5030400;28;20071;-94
2021/11/06 05:34:07;;;;;;;9.18;6.10;;;5.00;80.80;;;;;;5030461;28;20053;-91
2021/11/06 05:36:48;;;;;;;10.70;7.18;;;5.00;80.80;;;;;;5016895;28;20498;-91
2021/11/06 05:39:15;;;;;;;9.50;6.38;;;5.00;80.80;;;;;;5033916;28;20103;-92
2021/11/06 05:41:42;;;;;;;10.60;6.90;;;5.00;80.80;;;;;;5034519;28;20045;-91
2021/11/06 05:44:09;;;;;;;10.60;7.10;;;5.00;80.90;;;;;;5033871;28;20053;-91
2021/11/06 05:46:36;;;;;;;12.77;7.05;;;5.00;80.90;;;;;;5033895;28;20049;-92
2021/11/06 05:49:03;;;;;;;10.50;7.45;;;5.00;80.90;;;;;;5033769;28;20096;-91
2021/11/06 05:51:37;;;;;;;;;;;5.00;80.90;;;;;;5018886;28;20077;-91
2021/11/06 05:54:06;;;;;;;11.15;7.15;;;5.00;81.00;;;;;;5034026;28;19921;-93
2021/11/06 05:56:34;;;;;;;10.40;7.47;;;5.00;81.00;;;;;;5033845;28;20107;-94
2021/11/06 05:59:01;;;;;;;10.30;7.65;;;5.00;81.00;;;;;;5033548;28;20049;-91
2021/11/06 06:01:28;;;;;;;10.65;7.90;;;5.00;81.10;;;;;;5033519;28;20111;-92
2021/11/06 06:03:55;;;;;;;12.25;7.85;;;5.00;81.10;;;;;;5033734;28;20103;-92
2021/11/06 06:06:39;;;;;;;10.57;7.68;;;5.00;81.20;;;;;;5017437;28;20525;-91
2021/11/06 06:09:06;;;;;;;10.23;7.45;;;5.00;81.30;;;;;;5033756;28;20053;-92
2021/11/06 06:11:48;;;;;;;10.88;7.47;;;5.00;81.30;;;;;;5033939;28;20107;-93
2021/11/06 06:14:15;;;;;;;10.55;7.68;;;5.00;81.30;;;;;;5033111;28;20053;-91
2021/11/06 06:16:42;;;;;;;11.85;8.48;;;5.00;81.40;;;;;;5032893;28;20045;-92
2021/11/06 06:19:09;;;;;;;13.13;7.80;;;5.10;81.40;;;;;;5033151;28;20115;-93
2021/11/06 06:21:36;;;;;;;12.10;7.80;;;5.10;81.50;;;;;;5033648;28;20049;-93
2021/11/06 06:24:03;;;;;;;10.82;7.90;;;5.10;81.50;;;;;;5029077;28;20104;-92
2021/11/06 06:26:30;;;;;;;13.73;8.27;;;5.10;81.50;;;;;;5032933;28;20414;-93
2021/11/06 06:28:57;;;;;;;11.85;7.80;;;5.10;81.50;;;;;;5032878;28;20061;-89
2021/11/06 06:31:30;;;;;;;11.45;8.20;;;5.20;81.60;;;;;;5032803;28;20046;-91
2021/11/06 06:33:57;;;;;;;12.05;8.10;;;5.20;81.60;;;;;;5032663;28;20057;-90
2021/11/06 06:36:25;;;;;;;9.82;7.28;;;5.20;81.60;;;;;;5033015;28;20049;-91
2021/11/06 06:38:52;;;;;;;11.32;8.48;;;5.20;81.60;;;;;;5050524;28;20096;-92
2021/11/06 06:41:19;;;;;;;11.75;8.30;;;5.20;81.60;;;;;;5031245;28;20100;-92
2021/11/06 06:43:46;;;;;;;11.82;8.65;;;5.20;81.70;;;;;;5032525;28;20456;-90
2021/11/06 06:46:13;;;;;;;12.98;8.70;;;5.30;81.70;;;;;;5032461;28;20080;-91
2021/11/06 06:48:40;;;;;;;11.30;8.10;;;5.30;81.70;;;;;;5032780;28;20058;-92
2021/11/06 06:51:07;;;;;;;12.55;8.77;;;5.30;81.70;;;;;;5032695;28;20095;-91
2021/11/06 06:53:34;;;;;;;11.82;8.25;;;5.40;81.70;;;;;;5031995;28;20050;-91
2021/11/06 06:56:01;;;;;;;14.20;8.68;;;5.40;81.70;;;;;;5032110;28;20457;-92
2021/11/06 06:58:28;;;;;;;11.70;8.25;;;5.30;81.70;;;;;;5032369;28;20053;-90
2021/11/06 07:00:55;;;;;;;12.05;8.77;;;5.40;81.80;;;;;;5032413;28;20041;-92
2021/11/06 07:03:22;;;;;;;10.93;8.68;;;5.40;81.70;;;;;;5032028;28;20049;-93
2021/11/06 07:05:49;;;;;;;13.00;8.82;;;5.40;81.80;;;;;;5033094;28;20052;-92
2021/11/06 07:08:20;;;;;;;11.93;8.48;;;5.40;81.80;;;;;;5031913;28;20107;-92
2021/11/06 07:10:48;;;;;;;13.27;9.00;;;5.40;81.80;;;;;;5032592;28;20049;-93
2021/11/06 07:13:20;;;;;;;14.50;8.63;;;5.40;81.80;;;;;;5032106;28;20068;-93
2021/11/06 07:15:48;;;;;;;10.70;8.95;;;5.40;81.80;;;;;;5032249;28;20037;-92
2021/11/06 07:18:16;;;;;;;13.35;8.95;;;5.50;81.80;;;;;;5032433;28;20054;-91
2021/11/06 07:20:43;;;;;;;13.25;9.50;;;5.50;81.80;;;;;;5032622;28;20045;-94
2021/11/06 07:23:11;;;;;;;10.82;8.90;;;5.50;81.80;;;;;;5031924;28;20560;-92
2021/11/06 07:25:38;;;;;;;11.20;8.90;;;5.50;81.80;;;;;;5032209;28;20053;-91
2021/11/06 07:28:05;;;;;;;16.33;9.85;;;5.50;81.90;;;;;;5032183;28;20054;-92
2021/11/06 07:30:32;;;;;;;13.48;9.25;;;5.50;81.90;;;;;;5029635;28;20054;-93
2021/11/06 07:32:59;;;;;;;15.80;9.70;;;5.50;81.90;;;;;;5032271;28;20065;-92
2021/11/06 07:35:31;;;;;;;17.08;10.30;;;5.50;81.90;;;;;;5031372;28;20056;-92
2021/11/06 07:37:59;;;;;;;13.18;9.57;;;5.60;82.00;;;;;;5031465;28;20057;-90
2021/11/06 07:40:26;;;;;;;17.33;9.95;;;5.60;82.00;;;;;;5031135;28;20103;-92
2021/11/06 07:42:53;;;;;;;14.55;10.20;;;5.60;82.00;;;;;;5031337;28;20461;-89
2021/11/06 07:45:20;;;;;;;10.82;9.32;;;5.60;82.00;;;;;;5031096;28;20072;-90
2021/11/06 07:47:47;;;;;;;12.05;9.40;;;5.70;82.10;;;;;;5031685;28;20517;-90
2021/11/06 07:50:30;;;;;;;15.55;9.95;;;5.70;82.10;;;;;;5029864;28;20081;-90
2021/11/06 07:52:57;;;;;;;13.25;9.48;;;5.70;82.10;;;;;;5028869;28;20449;-91
2021/11/06 07:55:24;;;;;;;12.43;10.00;;;5.70;82.10;;;;;;5031145;28;20052;-90
2021/11/06 07:57:52;;;;;;;13.73;9.65;;;5.70;82.10;;;;;;5031425;28;20053;-91
2021/11/06 08:00:20;;;;;;;11.43;9.25;;;5.70;82.20;;;;;;5031466;28;20110;-90
2021/11/06 08:02:56;;;;;;;13.35;9.65;;;5.80;82.20;;;;;;5031419;28;20053;-91
2021/11/06 08:05:23;;;;;;;11.32;9.35;;;5.70;82.20;;;;;;5031153;28;20054;-90
2021/11/06 08:07:50;;;;;;;12.88;9.05;;;5.80;82.30;;;;;;5031766;28;20050;-91
2021/11/06 08:10:17;;;;;;;13.75;10.30;;;5.90;82.30;;;;;;5031659;28;20045;-89
2021/11/06 08:12:44;;;;;;;14.10;9.43;;;5.90;82.40;;;;;;5031710;28;20041;-91
2021/11/06 08:15:13;;;;;;;16.65;10.68;;;5.90;82.40;;;;;;5031887;28;20057;-90
2021/11/06 08:17:41;;;;;;;14.73;10.48;;;5.90;82.40;;;;;;5031233;28;20046;-90
2021/11/06 08:20:09;;;;;;;13.57;10.07;;;5.90;82.40;;;;;;5030941;28;20060;-91
2021/11/06 08:22:54;;;;;;;13.30;10.13;;;5.90;82.40;;;;;;5031804;28;20068;-90
2021/11/06 08:25:22;;;;;;;14.93;10.10;;;5.90;82.40;;;;;;5031828;28;20107;-91
2021/11/06 08:27:52;;;;;;;13.05;9.80;;;6.00;82.50;;;;;;5031575;28;20107;-91
2021/11/06 08:30:21;;;;;;;14.15;10.07;;;6.00;82.50;;;;;;5031867;28;20053;-90
2021/11/06 08:32:51;;;;;;;14.27;9.93;;;6.00;82.50;;;;;;5030014;28;20496;-90
2021/11/06 08:35:18;;;;;;;12.27;9.52;;;6.00;82.50;;;;;;5030755;28;20107;-90
2021/11/06 08:37:45;;;;;;;16.40;10.57;;;6.10;82.60;;;;;;5031420;28;20041;-91
2021/11/06 08:40:15;;;;;;;13.45;9.80;;;6.10;82.60;;;;;;5031647;28;20049;-90
2021/11/06 08:42:44;;;;;;;18.13;11.23;;;6.10;82.70;;;;;;5028649;28;20421;-90
2021/11/06 08:45:13;;;;;;;12.25;9.77;;;6.20;82.70;;;;;;5030075;28;20053;-90
2021/11/06 08:47:41;;;;;;;15.25;10.23;;;6.20;82.70;;;;;;5035040;28;20053;-91
2021/11/06 08:50:26;;;;;;;12.73;9.65;;;6.20;82.70;;;;;;5033649;28;20057;-92
2021/11/06 08:52:55;;;;;;;12.43;9.77;;;6.20;82.70;;;;;;5032050;28;20061;-91
2021/11/06 08:55:24;;;;;;;15.15;10.82;;;6.20;82.70;;;;;;5033291;28;20059;-90
2021/11/06 08:57:55;;;;;;;16.97;9.93;;;6.30;82.80;;;;;;5031386;28;20045;-92
2021/11/06 09:00:31;;;;;;;14.20;10.75;;;6.30;82.80;;;;;;5031212;28;20514;-90
2021/11/06 09:03:03;;;;;;;14.38;10.35;;;6.40;82.80;;;;;;5035188;28;20058;-90
2021/11/06 09:05:31;;;;;;;14.93;10.80;;;6.40;82.80;;;;;;5031436;28;20521;-90
2021/11/06 09:08:20;;;;;;;12.35;9.55;;;6.40;82.80;;;;;;5032256;28;20081;-87
2021/11/06 09:10:48;;;;;;;11.50;9.55;;;6.50;82.80;;;;;;5031767;28;20524;-91
2021/11/06 09:13:15;;;;;;;14.50;9.75;;;6.50;82.90;;;;;;5036379;28;20052;-91
2021/11/06 09:15:42;;;;;;;12.10;9.15;;;6.50;82.90;;;;;;5031688;28;20068;-91
2021/11/06 09:18:09;;;;;;;14.90;9.35;;;6.50;82.90;;;;;;5037592;28;20056;-91
2021/11/06 09:20:37;;;;;;;13.02;9.32;;;6.60;82.90;;;;;;5038250;28;20053;-91
2021/11/06 09:23:04;;;;;;;14.05;10.23;;;6.60;82.90;;;;;;5035664;28;20057;-91
2021/11/06 09:25:31;;;;;;;12.73;9.40;;;6.60;82.90;;;;;;5037046;28;20456;-89
2021/11/06 09:27:59;;;;;;;13.63;9.82;;;6.70;82.90;;;;;;5034052;28;20429;-90
2021/11/06 09:30:26;;;;;;;12.18;9.02;;;6.70;82.90;;;;;;5033719;28;20057;-91
2021/11/06 09:32:54;;;;;;;12.23;8.52;;;6.70;82.90;;;;;;5039360;28;20057;-90
2021/11/06 09:35:21;;;;;;;11.23;8.60;;;6.80;82.90;;;;;;5038044;28;20514;-91
2021/11/06 09:37:48;;;;;;;11.98;8.93;;;6.80;82.90;;;;;;5034994;28;20049;-91
2021/11/06 09:40:15;;;;;;;10.93;8.15;;;6.90;82.90;;;;;;5037018;28;20045;-90
2021/11/06 09:42:43;;;;;;;11.85;8.75;;;6.90;82.90;;;;;;5031697;28;20052;-90
2021/11/06 09:45:11;;;;;;;12.27;8.45;;;6.90;82.90;;;;;;5037540;28;20049;-91
2021/11/06 09:47:43;;;;;;;12.45;8.40;;;7.00;82.90;;;;;;5037953;28;20049;-91
2021/11/06 09:50:16;;;;;;;12.35;8.60;;;7.00;82.90;;;;;;5037149;28;20049;-92
2021/11/06 09:52:49;;;;;;;12.27;7.55;;;7.10;82.90;;;;;;5036697;28;20480;-91
2021/11/06 09:55:17;;;;;;;12.38;8.30;;;7.10;82.90;;;;;;5034746;28;20460;-91
2021/11/06 09:57:45;;;;;;;11.98;7.43;;;7.10;82.90;;;;;;5032340;28;20042;-92
2021/11/06 10:00:13;;;;;;;10.80;7.72;;;7.20;82.80;;;;;;5037628;28;20053;-92
2021/11/06 10:02:41;;;;;;;11.55;7.25;;;7.30;82.90;;;;;;5038148;28;20049;-91
2021/11/06 10:05:46;;;;;;;11.00;7.70;;;7.30;82.80;;;;;;5042093;28;20433;-92
2021/11/06 10:08:24;;;;;;;9.65;7.72;;;7.30;82.80;;;;;;5039350;28;20045;-91
2021/11/06 10:11:34;;;;;;;10.02;8.02;;;7.30;82.80;;;;;;5034411;28;20045;-91
2021/11/06 10:14:03;;;;;;;12.43;7.80;;;7.40;82.70;;;;;;5058393;28;20478;-91
2021/11/06 10:16:35;;;;;;;10.55;7.40;;;7.40;82.70;;;;;;5036436;28;20049;-93
2021/11/06 10:19:09;;;;;;;11.93;7.00;;;7.40;82.70;;;;;;5033541;28;20041;-92
2021/11/06 10:21:39;;;;;;;10.20;7.75;;;7.40;82.70;;;;;;5015445;28;20111;-91
2021/11/06 10:24:06;;;;;;;10.02;7.45;;;7.40;82.70;;;;;;5046421;28;20103;-92
2021/11/06 10:26:34;;;;;;;10.38;7.07;;;7.50;82.60;;;;;;5034304;28;20049;-90
2021/11/06 10:29:08;;;;;;;12.55;7.25;;;7.50;82.60;;;;;;5034402;28;20450;-90
2021/11/06 10:31:58;;;;;;;9.73;7.05;;;7.50;82.60;;;;;;5034446;28;20095;-91
2021/11/06 10:34:31;;;;;;;9.35;6.47;;;7.50;82.60;;;;;;5035959;28;20048;-92
2021/11/06 10:37:14;;;;;;;11.82;7.30;;;7.50;82.60;;;;;;5044887;28;20048;-91
2021/11/06 10:39:56;;;;;;;10.60;6.97;;;7.50;82.60;;;;;;5030604;28;20049;-93
2021/11/06 10:42:23;;;;;;;10.98;7.55;;;7.60;82.60;;;;;;5033396;28;20049;-92
2021/11/06 10:44:50;;;;;;;9.40;6.80;;;7.60;82.50;;;;;;5038282;28;20398;-93
2021/11/06 10:47:17;;;;;;;9.07;6.90;;;7.60;82.50;;;;;;5034600;28;20103;-93
2021/11/06 10:49:49;;;;;;;10.90;7.00;;;7.70;82.60;;;;;;5038742;28;20049;-91
2021/11/06 10:52:18;;;;;;;11.02;6.93;;;7.70;82.60;;;;;;5034433;28;20106;-92
2021/11/06 10:55:00;;;;;;;11.80;6.85;;;7.70;82.60;;;;;;5028676;28;20107;-92
2021/11/06 10:57:28;;;;;;;13.80;7.35;;;7.80;82.60;;;;;;5046851;28;20057;-93
2021/11/06 11:00:14;;;;;;;9.68;6.97;;;7.80;82.60;;;;;;5014031;28;20058;-93
2021/11/06 11:02:55;;;;;;;9.85;6.90;;;7.80;82.60;;;;;;5037333;28;20053;-93
2021/11/06 11:05:31;;;;;;;12.55;6.95;;;7.90;82.70;;;;;;5034560;28;20056;-91
2021/11/06 11:08:09;;;;;;;11.80;7.07;;;7.90;82.70;;;;;;5034067;28;20057;-91
2021/11/06 11:10:42;;;;;;;12.30;6.80;;;8.00;82.70;;;;;;5033259;28;20049;-92
2021/11/06 11:13:14;;;;;;;11.32;7.05;;;8.00;82.70;;;;;;5035429;28;20103;-92
2021/11/06 11:15:44;;;;;;;9.50;6.95;;;8.00;82.60;;;;;;5015270;28;20049;-91
2021/11/06 11:18:39;;;;;;;9.07;6.63;;;8.10;82.60;;;;;;5036325;28;20052;-92
2021/11/06 11:21:19;;;;;;;9.15;6.40;;;8.10;82.60;;;;;;5039211;28;20100;-92
2021/11/06 11:23:54;;;;;;;10.57;6.32;;;8.20;82.60;;;;;;5046877;28;20111;-92
2021/11/06 11:26:24;;;;;;;9.40;6.13;;;8.20;82.50;;;;;;5035318;28;20053;-92
2021/11/06 11:28:53;;;;;;;10.63;6.75;;;8.30;82.50;;;;;;5033855;28;20107;-92
2021/11/06 11:31:36;;;;;;;10.05;6.63;;;8.30;82.40;;;;;;5035785;28;20052;-94
2021/11/06 11:34:03;;;;;;;8.45;6.25;;;8.30;82.40;;;;;;5034300;28;20045;-92
2021/11/06 11:36:31;;;;;;;13.48;7.18;;;8.40;82.40;;;;;;5032209;28;20050;-92
2021/11/06 11:39:15;;;;;;;8.38;6.20;;;8.40;82.30;;;;;;5044046;28;20051;-92
2021/11/06 11:41:56;;;;;;;9.65;6.40;;;8.40;82.30;;;;;;5034858;28;20091;-94
2021/11/06 11:44:29;;;;;;;10.80;7.07;;;8.40;82.30;;;;;;5044464;28;20102;-92
2021/11/06 11:47:04;;;;;;;11.27;7.10;;;8.50;82.20;;;;;;5039799;28;20054;-93
2021/11/06 11:49:33;;;;;;;13.13;7.18;;;8.50;82.10;;;;;;5037968;28;20052;-92
2021/11/06 11:52:29;;;;;;;9.27;6.85;;;8.50;82.20;;;;;;5043443;28;20390;-91
2021/11/06 11:55:20;;;;;;;12.25;7.50;;;8.50;82.10;;;;;;5018263;28;20049;-92
2021/11/06 11:58:03;;;;;;;9.43;6.97;;;8.60;82.10;;;;;;5015453;28;20091;-91
2021/11/06 12:00:30;;;;;;;8.98;6.72;;;8.60;82.00;;;;;;5029199;28;20407;-90
2021/11/06 12:03:00;;;;;;;8.90;6.28;;;8.60;82.00;;;;;;5034695;28;20560;-91
2021/11/06 12:05:48;;;;;;;9.32;6.43;;;8.70;82.00;;;;;;5031296;28;20053;-90
2021/11/06 12:08:21;;;;;;;10.20;6.95;;;8.70;82.00;;;;;;5031437;28;20057;-88
2021/11/06 12:11:00;;;;;;;13.35;7.43;;;8.70;81.90;;;;;;5031178;28;20053;-90
2021/11/06 12:13:27;;;;;;;8.75;6.22;;;8.70;81.90;;;;;;5032732;28;20382;-91
2021/11/06 12:15:59;;;;;;;9.30;6.20;;;8.70;81.90;;;;;;5029330;28;20096;-91
2021/11/06 12:18:35;;;;;;;10.80;7.40;;;8.80;81.90;;;;;;5046167;28;20448;-89
2021/11/06 12:21:19;;;;;;;10.07;6.60;;;8.80;81.90;;;;;;5035100;28;20049;-89
2021/11/06 12:24:07;;;;;;;10.00;6.13;;;8.90;81.80;;;;;;5032965;28;20103;-91
2021/11/06 12:26:53;;;;;;;10.93;6.82;;;8.90;81.90;;;;;;5032740;28;20134;-91
2021/11/06 12:29:31;;;;;;;10.15;6.60;;;8.90;81.90;;;;;;5031075;28;20049;-91
2021/11/06 12:32:24;;;;;;;10.57;7.10;;;8.90;81.90;;;;;;5030227;28;20042;-92
2021/11/06 12:34:56;;;;;;;15.38;7.05;;;8.90;81.90;;;;;;5031253;28;20053;-90
2021/11/06 12:37:37;;;;;;;10.43;6.28;;;8.90;81.80;;;;;;5033600;28;20037;-92
2021/11/06 12:40:18;;;;;;;10.07;7.45;;;9.00;81.80;;;;;;5030145;28;20049;-89
2021/11/06 12:43:11;;;;;;;11.50;6.47;;;9.00;81.90;;;;;;5013161;28;20046;-90
2021/11/06 12:45:43;;;;;;;13.48;6.97;;;9.00;81.90;;;;;;5014624;28;20050;-89
2021/11/06 12:48:33;;;;;;;11.35;6.53;;;9.10;81.80;;;;;;5033135;28;20574;-89
2021/11/06 12:51:03;;;;;;;;;;;9.10;81.90;;;;;;5039535;28;20041;-89
2021/11/06 12:53:34;;;;;;;11.52;7.10;;;9.20;81.90;;;;;;5035973;28;20332;-90
2021/11/06 12:56:08;;;;;;;10.43;6.72;;;9.20;81.80;;;;;;5035782;28;20053;-90
2021/11/06 12:58:36;;;;;;;;;;;9.20;81.80;;;;;;5036310;28;20111;-91
2021/11/06 13:01:33;;;;;;;10.63;6.50;;;9.20;81.80;;;;;;5035088;28;19924;-91
2021/11/06 13:04:03;;;;;;;9.45;6.38;;;9.30;81.70;;;;;;5038099;28;20421;-91
2021/11/06 13:06:33;;;;;;;11.27;6.00;;;9.30;81.70;;;;;;5033698;28;20047;-87